首页
METAR-TAF:

METAR-TAF

机场 :

雅典埃莱夫塞里奥斯·韦尼泽洛斯国际机场

雅典, 希腊

纬度: 37-56N, 经度: 023-56E, 海拔: 94米

当前天气观测

该预报发布于27分钟前的19:50 UTC
风速10节,风向
温度 9°C
湿度 57%
气压 1031 hPa
能见度10公里或以上
散云层高于3000英尺

METAR: LGAV 231950Z 01010KT 9999 SCT030 09/01 Q1031 NOSIG

时间: 22:17 (20:17 UTC)

预报

该预报发布于3小时和17分钟前的17:00 UTC
预报有效从23日的 18点(UTC)到 24日的 18点(UTC)
风速18节,风向
能见度10公里或以上
少量云层高于2500英尺
短暂存在
从 23日的 18点(UTC)到 23日的 21点(UTC)
风速18节,风向北转东北,有时为28节阵风
成为
从 24日的 00点(UTC)到 24日的 02点(UTC)
风速12节,风向北转东北

TAF: LGAV 231700Z 2318/2418 01018KT 9999 FEW025 TEMPO 2318/2321 03018G28KT BECMG 2400/2402 03012KT

超过4000个机场的气象观测和天气预报(METAR&TAF报告)。

可查询的气象台以黄色和红色小点在地图上表示。

将鼠标移到小点上方,可查看气象台名称。

然后点击查看天气观测和预报。

如需切换地图:点击带黑十字的绿色按钮放大地图;点击带横线的绿色按钮缩小地图;或者点击绿色箭头查看邻近地区的地图。


METAR-TAF: